createdAt,value
2024-02-03T00:00:12.924Z,102642.72
2024-02-03T00:02:39.941Z,102637.31
2024-02-03T00:05:06.720Z,102636.44
2024-02-03T00:07:33.871Z,102640.88
2024-02-03T00:10:00.530Z,102630.88
2024-02-03T00:12:29.934Z,102630.78
2024-02-03T00:14:57.247Z,102627.13
2024-02-03T00:17:24.278Z,102632.47
2024-02-03T00:19:53.741Z,102635.03
2024-02-03T00:22:20.896Z,102625.00
2024-02-03T00:24:47.992Z,102618.56
2024-02-03T00:27:15.372Z,102619.44
2024-02-03T00:29:42.081Z,102624.69
2024-02-03T00:32:08.981Z,102615.63
2024-02-03T00:34:36.534Z,102614.66
2024-02-03T00:37:05.323Z,102619.09
2024-02-03T00:39:32.179Z,102624.41
2024-02-03T00:41:59.046Z,102617.28
2024-02-03T00:44:25.756Z,102619.09
2024-02-03T00:46:52.515Z,102619.09
2024-02-03T00:49:19.375Z,102627.22
2024-02-03T00:51:46.215Z,102611.00
2024-02-03T00:54:12.955Z,102617.28
2024-02-03T00:56:39.567Z,102624.50
2024-02-03T00:59:06.277Z,102617.28
2024-02-03T01:01:33.167Z,102612.75
2024-02-03T01:04:00.846Z,102612.75
2024-02-03T01:06:28.096Z,102611.88
2024-02-03T01:08:54.887Z,102610.06
2024-02-03T01:11:21.682Z,102610.84
2024-02-03T01:13:48.349Z,102597.34
2024-02-03T01:16:16.803Z,102598.13
2024-02-03T01:18:46.106Z,102601.69
2024-02-03T01:21:17.667Z,102610.66
2024-02-03T01:23:45.668Z,102604.31
2024-02-03T01:26:12.300Z,102596.22
2024-02-03T01:28:39.013Z,102596.13
2024-02-03T01:31:06.164Z,102595.16
2024-02-03T01:33:33.361Z,102596.81
2024-02-03T01:36:00.190Z,102595.00
2024-02-03T01:38:27.071Z,102599.44
2024-02-03T01:40:54.230Z,102591.44
2024-02-03T01:43:21.016Z,102597.59
2024-02-03T01:45:47.835Z,102593.94
2024-02-03T01:48:15.024Z,102601.09
2024-02-03T01:50:45.579Z,102596.56
2024-02-03T01:53:14.003Z,102598.22
2024-02-03T01:55:41.153Z,102599.00
2024-02-03T01:58:08.187Z,102603.44
2024-02-03T02:00:34.968Z,102598.91
2024-02-03T02:03:01.903Z,102590.81
2024-02-03T02:05:31.825Z,102584.47
2024-02-03T02:07:58.631Z,102587.06
2024-02-03T02:10:25.325Z,102590.72
2024-02-03T02:12:52.087Z,102583.41
2024-02-03T02:15:18.930Z,102577.06
2024-02-03T02:17:45.902Z,102582.38
2024-02-03T02:20:13.258Z,102583.25
2024-02-03T02:22:40.214Z,102584.91
2024-02-03T02:25:07.158Z,102576.69
2024-02-03T02:27:34.350Z,102575.75
2024-02-03T02:30:01.221Z,102574.88
2024-02-03T02:32:27.938Z,102581.16
2024-02-03T02:34:54.693Z,102571.31
2024-02-03T02:37:21.458Z,102579.41
2024-02-03T02:39:48.906Z,102575.75
2024-02-03T02:42:16.941Z,102579.41
2024-02-03T02:44:45.488Z,102577.66
2024-02-03T02:47:12.178Z,102575.06
2024-02-03T02:49:39.069Z,102566.06
2024-02-03T02:52:06.589Z,102561.72
2024-02-03T02:54:33.757Z,102575.31
2024-02-03T02:57:00.467Z,102566.53
2024-02-03T02:59:27.387Z,102558.50
2024-02-03T03:01:54.055Z,102565.72
2024-02-03T03:04:20.745Z,102569.41
2024-02-03T03:06:47.563Z,102560.41
2024-02-03T03:09:14.556Z,102567.66
2024-02-03T03:11:41.222Z,102555.97
2024-02-03T03:14:08.363Z,102549.63
2024-02-03T03:16:36.007Z,102558.50
2024-02-03T03:19:02.993Z,102560.34
2024-02-03T03:21:29.798Z,102561.28
2024-02-03T03:23:56.497Z,102556.94
2024-02-03T03:26:23.103Z,102561.47
2024-02-03T03:28:49.678Z,102555.19
2024-02-03T03:31:16.255Z,102558.84
2024-02-03T03:33:43.090Z,102548.06
2024-02-03T03:36:12.305Z,102549.88
2024-02-03T03:38:44.054Z,102545.44
2024-02-03T03:41:11.326Z,102541.00
2024-02-03T03:43:38.537Z,102545.44
2024-02-03T03:46:07.749Z,102558.06
2024-02-03T03:48:34.517Z,102555.47
2024-02-03T03:51:01.280Z,102541.00
2024-02-03T03:53:27.898Z,102538.31
2024-02-03T03:55:54.529Z,102545.44
2024-02-03T03:58:21.148Z,102546.31
2024-02-03T04:00:47.874Z,102545.44
2024-02-03T04:03:14.753Z,102557.13
2024-02-03T04:05:42.156Z,102551.63
2024-02-03T04:08:09.065Z,102555.13
2024-02-03T04:10:35.742Z,102554.06
2024-02-03T04:13:02.327Z,102544.13
2024-02-03T04:15:30.378Z,102549.53
2024-02-03T04:17:58.614Z,102557.53
2024-02-03T04:20:28.123Z,102556.59
2024-02-03T04:22:54.907Z,102554.75
2024-02-03T04:25:21.605Z,102555.72
2024-02-03T04:27:48.434Z,102554.75
2024-02-03T04:30:22.820Z,102546.66
2024-02-03T04:32:52.755Z,102554.66
2024-02-03T04:35:19.748Z,102542.91
2024-02-03T04:37:46.360Z,102541.09
2024-02-03T04:40:13.062Z,102555.28
2024-02-03T04:42:39.760Z,102553.53
2024-02-03T04:45:07.863Z,102558.94
2024-02-03T04:47:34.833Z,102555.28
2024-02-03T04:50:02.122Z,102550.75
2024-02-03T04:52:29.218Z,102547.19
2024-02-03T04:54:55.933Z,102551.63
2024-02-03T04:57:22.637Z,102545.34
2024-02-03T04:59:49.290Z,102542.66
2024-02-03T05:02:15.908Z,102527.41
2024-02-03T05:04:44.176Z,102538.13
2024-02-03T05:07:11.075Z,102522.88
2024-02-03T05:09:38.067Z,102527.41
2024-02-03T05:12:05.264Z,102529.22
2024-02-03T05:14:32.562Z,102523.06
2024-02-03T05:17:00.362Z,102525.75
2024-02-03T05:19:29.025Z,102510.50
2024-02-03T05:21:55.823Z,102516.88
2024-02-03T05:24:23.631Z,102522.19
2024-02-03T05:26:50.428Z,102525.75
2024-02-03T05:29:17.623Z,102525.75
2024-02-03T05:31:45.579Z,102532.09
2024-02-03T05:34:13.188Z,102537.50
2024-02-03T05:36:40.069Z,102528.53
2024-02-03T05:39:07.089Z,102525.84
2024-02-03T05:41:33.677Z,102516.88
2024-02-03T05:44:00.442Z,102511.47
2024-02-03T05:46:27.066Z,102514.16
2024-02-03T05:48:55.519Z,102525.75
2024-02-03T05:51:22.451Z,102522.09
2024-02-03T05:53:49.290Z,102518.44
2024-02-03T05:56:15.905Z,102518.44
2024-02-03T05:58:47.056Z,102530.09
2024-02-03T06:01:13.836Z,102531.06
2024-02-03T06:03:40.552Z,102529.22
2024-02-03T06:06:22.220Z,102534.63
2024-02-03T06:08:52.734Z,102547.19
2024-02-03T06:11:19.358Z,102529.91
2024-02-03T06:13:46.753Z,102536.28
2024-02-03T06:16:13.514Z,102532.81
2024-02-03T06:18:40.192Z,102541.88
2024-02-03T06:21:06.969Z,102530.19
2024-02-03T06:23:33.557Z,102518.53
2024-02-03T06:26:00.342Z,102523.84
2024-02-03T06:28:26.974Z,102523.75
2024-02-03T06:30:53.664Z,102514.78
2024-02-03T06:33:20.434Z,102511.97
2024-02-03T06:35:47.233Z,102514.69
2024-02-03T06:38:14.584Z,102516.41
2024-02-03T06:40:41.464Z,102524.53
2024-02-03T06:43:08.303Z,102525.38
2024-02-03T06:45:35.090Z,102530.88
2024-02-03T06:48:01.952Z,102523.66
2024-02-03T06:50:28.635Z,102518.25
2024-02-03T06:52:55.259Z,102524.63
2024-02-03T06:55:21.937Z,102535.31
2024-02-03T06:57:48.666Z,102512.84
2024-02-03T07:00:16.124Z,102516.50
2024-02-03T07:02:42.785Z,102511.97
2024-02-03T07:05:09.695Z,102513.81
2024-02-03T07:07:36.786Z,102520.00
2024-02-03T07:10:03.653Z,102520.84
2024-02-03T07:12:30.297Z,102521.72
2024-02-03T07:14:57.051Z,102537.94
2024-02-03T07:17:23.876Z,102525.31
2024-02-03T07:19:50.671Z,102533.41
2024-02-03T07:22:17.431Z,102536.19
2024-02-03T07:24:45.572Z,102529.06
2024-02-03T07:27:12.339Z,102530.09
2024-02-03T07:29:40.333Z,102523.91
2024-02-03T07:32:07.632Z,102532.97
2024-02-03T07:34:34.809Z,102540.22
2024-02-03T07:37:01.997Z,102546.56
2024-02-03T07:39:28.767Z,102552.84
2024-02-03T07:41:56.065Z,102542.03
2024-02-03T07:44:22.884Z,102541.16
2024-02-03T07:46:49.544Z,102542.13
2024-02-03T07:49:16.328Z,102541.25
2024-02-03T07:51:43.015Z,102554.66
2024-02-03T07:54:10.887Z,102554.75
2024-02-03T07:56:38.186Z,102552.06
2024-02-03T07:59:04.760Z,102549.34
2024-02-03T08:01:31.416Z,102543.09
2024-02-03T08:03:59.345Z,102554.66
2024-02-03T08:06:26.155Z,102554.66
2024-02-03T08:08:52.867Z,102553.81
2024-02-03T08:11:19.753Z,102554.66
2024-02-03T08:13:46.376Z,102553.63
2024-02-03T08:16:12.994Z,102557.19
2024-02-03T08:18:39.785Z,102561.63
2024-02-03T08:21:06.989Z,102559.91
2024-02-03T08:23:33.665Z,102565.28
2024-02-03T08:26:00.423Z,102562.59
2024-02-03T08:28:27.135Z,102554.50
2024-02-03T08:30:53.777Z,102563.47
2024-02-03T08:33:20.552Z,102570.59
2024-02-03T08:35:47.513Z,102564.25
2024-02-03T08:38:14.785Z,102566.94
2024-02-03T08:40:41.584Z,102570.53
2024-02-03T08:43:08.250Z,102560.59
2024-02-03T08:45:34.868Z,102555.09
2024-02-03T08:48:01.591Z,102557.72
2024-02-03T08:50:28.618Z,102554.84
2024-02-03T08:52:55.341Z,102556.47
2024-02-03T08:55:22.109Z,102552.81
2024-02-03T08:57:48.834Z,102540.19
2024-02-03T09:00:16.067Z,102552.66
2024-02-03T09:02:42.719Z,102551.59
2024-02-03T09:05:09.494Z,102547.06
2024-02-03T09:07:36.393Z,102553.25
2024-02-03T09:10:04.664Z,102553.94
2024-02-03T09:12:31.469Z,102545.75
2024-02-03T09:14:58.108Z,102538.41
2024-02-03T09:17:24.712Z,102543.63
2024-02-03T09:19:51.389Z,102555.25
2024-02-03T09:22:18.181Z,102546.19
2024-02-03T09:24:46.036Z,102557.78
2024-02-03T09:27:12.641Z,102556.03
2024-02-03T09:29:45.045Z,102559.72
2024-02-03T09:32:11.660Z,102557.00
2024-02-03T09:34:38.497Z,102560.66
2024-02-03T09:39:35.021Z,102556.22
2024-02-03T09:42:02.128Z,102538.19
2024-02-03T09:44:28.925Z,102545.41
2024-02-03T09:46:56.131Z,102539.91
2024-02-03T09:49:22.904Z,102549.78
2024-02-03T09:51:51.817Z,102550.63
2024-02-03T09:54:18.897Z,102560.56
2024-02-03T09:56:47.666Z,102560.56
2024-02-03T09:59:15.969Z,102556.91
2024-02-03T10:01:48.948Z,102565.81
2024-02-03T10:04:16.552Z,102566.66
2024-02-03T10:06:45.693Z,102571.03
2024-02-03T10:09:24.950Z,102575.47
2024-02-03T10:11:52.021Z,102573.53
2024-02-03T10:14:22.044Z,102564.38
2024-02-03T10:16:52.458Z,102575.19
2024-02-03T10:19:21.583Z,102567.09
2024-02-03T10:21:48.528Z,102572.50
2024-02-03T10:24:27.322Z,102574.31
2024-02-03T10:27:05.360Z,102574.31
2024-02-03T10:29:32.075Z,102577.81
2024-02-03T10:31:58.661Z,102582.34
2024-02-03T10:34:26.985Z,102583.22
2024-02-03T10:36:53.923Z,102577.81
2024-02-03T10:39:21.167Z,102577.81
2024-02-03T10:41:48.627Z,102572.31
2024-02-03T10:44:23.455Z,102575.78
2024-02-03T10:46:52.871Z,102579.28
2024-02-03T10:49:28.981Z,102579.09
2024-02-03T10:51:56.886Z,102573.59
2024-02-03T10:54:27.056Z,102578.03
2024-02-03T10:56:54.996Z,102579.72
2024-02-03T10:59:22.078Z,102577.06
2024-02-03T11:01:49.126Z,102578.03
2024-02-03T11:04:16.441Z,102586.16
2024-02-03T11:06:46.438Z,102587.97
2024-02-03T11:09:13.948Z,102583.53
2024-02-03T11:11:56.065Z,102579.19
2024-02-03T11:14:28.386Z,102577.44
2024-02-03T11:17:02.016Z,102572.91
2024-02-03T11:19:31.166Z,102578.31
2024-02-03T11:22:04.406Z,102564.88
2024-02-03T11:24:32.152Z,102568.56
2024-02-03T11:27:09.114Z,102557.84
2024-02-03T11:29:37.210Z,102564.09
2024-02-03T11:32:05.429Z,102563.25
2024-02-03T11:34:34.049Z,102562.47
2024-02-03T11:37:01.340Z,102556.09
2024-02-03T11:39:33.111Z,102556.09
2024-02-03T11:42:00.049Z,102554.44
2024-02-03T11:44:35.528Z,102553.66
2024-02-03T11:47:02.154Z,102547.47
2024-02-03T11:49:28.958Z,102547.56
2024-02-03T11:52:03.354Z,102544.09
2024-02-03T11:54:30.039Z,102542.34
2024-02-03T11:56:56.670Z,102543.31
2024-02-03T11:59:30.135Z,102534.44
2024-02-03T12:01:57.784Z,102539.06
2024-02-03T12:04:26.790Z,102529.97
2024-02-03T12:06:55.850Z,102527.28
2024-02-03T12:09:22.544Z,102519.09
2024-02-03T12:11:53.090Z,102523.34
2024-02-03T12:14:20.339Z,102524.22
2024-02-03T12:16:47.250Z,102521.31
2024-02-03T12:19:14.296Z,102525.00
2024-02-03T12:21:42.253Z,102528.56
2024-02-03T12:24:09.886Z,102533.88
2024-02-03T12:26:36.875Z,102524.81
2024-02-03T12:29:04.015Z,102522.09
2024-02-03T12:31:30.841Z,102519.41
2024-02-03T12:33:57.631Z,102527.41
2024-02-03T12:36:25.614Z,102521.16
2024-02-03T12:38:53.927Z,102517.56
2024-02-03T12:41:21.038Z,102522.00
2024-02-03T12:43:47.672Z,102513.03
2024-02-03T12:46:15.696Z,102514.69
2024-02-03T12:48:42.652Z,102516.44
2024-02-03T12:51:09.428Z,102512.84
2024-02-03T12:53:36.091Z,102509.28
2024-02-03T12:56:04.210Z,102505.72
2024-02-03T12:58:33.283Z,102505.63
2024-02-03T13:01:00.220Z,102501.16
2024-02-03T13:03:27.039Z,102488.72
2024-02-03T13:05:53.819Z,102488.72
2024-02-03T13:08:20.944Z,102490.53
2024-02-03T13:10:47.693Z,102493.34
2024-02-03T13:13:14.401Z,102481.56
2024-02-03T13:15:41.023Z,102481.47
2024-02-03T13:18:07.834Z,102482.16
2024-02-03T13:20:34.507Z,102483.91
2024-02-03T13:23:01.102Z,102486.50
2024-02-03T13:25:27.700Z,102473.88
2024-02-03T13:27:54.424Z,102473.88
2024-02-03T13:30:21.248Z,102490.84
2024-02-03T13:32:48.133Z,102484.50
2024-02-03T13:35:15.256Z,102484.41
2024-02-03T13:37:42.056Z,102486.13
2024-02-03T13:40:09.093Z,102479.84
2024-02-03T13:42:35.737Z,102496.94
2024-02-03T13:45:02.415Z,102476.28
2024-02-03T13:47:29.058Z,102475.41
2024-02-03T13:49:55.894Z,102472.72
2024-02-03T13:52:22.776Z,102479.09
2024-02-03T13:54:49.434Z,102497.91
2024-02-03T13:57:16.128Z,102487.97
2024-02-03T13:59:42.833Z,102493.28
2024-02-03T14:02:09.513Z,102485.16
2024-02-03T14:04:36.297Z,102490.56
2024-02-03T14:07:03.086Z,102486.91
2024-02-03T14:09:29.696Z,102480.63
2024-02-03T14:11:56.982Z,102483.34
2024-02-03T14:14:23.884Z,102476.09
2024-02-03T14:16:50.789Z,102477.06
2024-02-03T14:19:17.618Z,102481.50
2024-02-03T14:21:47.471Z,102476.09
2024-02-03T14:24:14.313Z,102474.31
2024-02-03T14:26:41.912Z,102473.34
2024-02-03T14:29:08.734Z,102473.34
2024-02-03T14:31:35.355Z,102475.06
2024-02-03T14:34:02.157Z,102480.47
2024-02-03T14:36:30.089Z,102482.22
2024-02-03T14:38:56.935Z,102474.00
2024-02-03T14:41:23.518Z,102482.03
2024-02-03T14:43:50.084Z,102473.81
2024-02-03T14:46:16.696Z,102478.38
2024-02-03T14:48:44.662Z,102478.38
2024-02-03T14:51:11.547Z,102479.22
2024-02-03T14:53:38.499Z,102477.41
2024-02-03T14:56:05.442Z,102485.50
2024-02-03T14:58:32.067Z,102482.81
2024-02-03T15:00:58.767Z,102484.53
2024-02-03T15:03:25.536Z,102483.59
2024-02-03T15:05:52.551Z,102479.81
2024-02-03T15:08:19.408Z,102483.38
2024-02-03T15:10:46.154Z,102474.31
2024-02-03T15:13:12.828Z,102482.44
2024-02-03T15:15:39.547Z,102472.38
2024-02-03T15:18:07.572Z,102468.72
2024-02-03T15:20:34.646Z,102485.72
2024-02-03T15:23:03.738Z,102485.53
2024-02-03T15:25:30.634Z,102491.91
2024-02-03T15:27:57.357Z,102478.38
2024-02-03T15:30:24.107Z,102483.78
2024-02-03T15:32:51.064Z,102473.06
2024-02-03T15:35:18.191Z,102481.94
2024-02-03T15:37:47.090Z,102493.81
2024-02-03T15:40:14.280Z,102481.28
2024-02-03T15:42:50.834Z,102480.41
2024-02-03T15:45:22.443Z,102489.38
2024-02-03T15:47:49.319Z,102475.00
2024-02-03T15:50:16.256Z,102470.47
2024-02-03T15:52:42.963Z,102489.38
2024-02-03T15:55:13.007Z,102488.50
2024-02-03T15:57:39.948Z,102484.06
2024-02-03T16:00:07.132Z,102488.59
2024-02-03T16:02:38.627Z,102493.25
2024-02-03T16:05:05.767Z,102497.78
2024-02-03T16:07:32.757Z,102494.22
2024-02-03T16:10:00.976Z,102497.88
2024-02-03T16:12:27.951Z,102488.91
2024-02-03T16:14:54.694Z,102490.63
2024-02-03T16:17:23.193Z,102486.09
2024-02-03T16:19:50.254Z,102485.13
2024-02-03T16:22:17.094Z,102482.44
2024-02-03T16:24:45.622Z,102488.69
2024-02-03T16:27:12.513Z,102486.00
2024-02-03T16:29:39.297Z,102481.66
2024-02-03T16:32:06.067Z,102478.94
2024-02-03T16:34:33.125Z,102479.81
2024-02-03T16:36:59.932Z,102479.91
2024-02-03T16:39:28.657Z,102476.34
2024-02-03T16:41:56.757Z,102478.06
2024-02-03T16:44:23.365Z,102478.06
2024-02-03T16:46:49.939Z,102480.88
2024-02-03T16:49:16.764Z,102474.69
2024-02-03T16:51:44.524Z,102472.19
2024-02-03T16:54:11.288Z,102481.34
2024-02-03T16:56:38.353Z,102491.28
2024-02-03T16:59:05.122Z,102472.47
2024-02-03T17:01:31.728Z,102476.03
2024-02-03T17:03:59.940Z,102484.16
2024-02-03T17:06:33.380Z,102477.94
2024-02-03T17:09:00.022Z,102464.59
2024-02-03T17:11:27.122Z,102470.88
2024-02-03T17:13:54.007Z,102467.41
2024-02-03T17:16:20.544Z,102475.69
2024-02-03T17:18:47.364Z,102471.34
2024-02-03T17:21:14.276Z,102475.88
2024-02-03T17:23:40.916Z,102488.63
2024-02-03T17:26:08.353Z,102495.00
2024-02-03T17:28:35.115Z,102487.84
2024-02-03T17:31:01.855Z,102490.63
2024-02-03T17:33:29.062Z,102489.94
2024-02-03T17:35:55.846Z,102488.31
2024-02-03T17:38:22.466Z,102490.41
2024-02-03T17:40:49.141Z,102497.72
2024-02-03T17:43:15.829Z,102492.59
2024-02-03T17:45:42.450Z,102487.47
2024-02-03T17:48:09.159Z,102492.16
2024-02-03T17:50:36.617Z,102494.19
2024-02-03T17:53:03.994Z,102478.06
2024-02-03T17:55:30.763Z,102495.31
2024-02-03T17:57:58.241Z,102495.41
2024-02-03T18:00:26.168Z,102494.72
2024-02-03T18:02:53.137Z,102494.91
2024-02-03T18:05:20.010Z,102495.00
2024-02-03T18:07:46.656Z,102492.38
2024-02-03T18:10:13.258Z,102493.34
2024-02-03T18:12:40.734Z,102502.41
2024-02-03T18:15:08.647Z,102495.25
2024-02-03T18:17:35.999Z,102494.41
2024-02-03T18:20:03.746Z,102482.72
2024-02-03T18:22:33.275Z,102479.16
2024-02-03T18:25:00.031Z,102493.63
2024-02-03T18:27:26.718Z,102489.16
2024-02-03T18:29:53.397Z,102491.88
2024-02-03T18:32:19.988Z,102487.53
2024-02-03T18:34:46.715Z,102474.97
2024-02-03T18:37:13.417Z,102490.41
2024-02-03T18:39:40.362Z,102483.25
2024-02-03T18:42:07.276Z,102490.56
2024-02-03T18:44:34.111Z,102490.56
2024-02-03T18:47:01.378Z,102496.94
2024-02-03T18:49:29.146Z,102499.63
2024-02-03T18:51:55.912Z,102502.44
2024-02-03T18:54:23.809Z,102503.38
2024-02-03T18:56:50.509Z,102510.63
2024-02-03T18:59:17.207Z,102517.84
2024-02-03T19:01:46.043Z,102515.13
2024-02-03T19:04:14.310Z,102503.47
2024-02-03T19:06:41.079Z,102508.88
2024-02-03T19:09:08.274Z,102516.88
2024-02-03T19:11:36.931Z,102521.22
2024-02-03T19:14:03.812Z,102507.72
2024-02-03T19:16:30.505Z,102494.22
2024-02-03T19:18:57.185Z,102495.09
2024-02-03T19:21:23.841Z,102494.22
2024-02-03T19:23:50.434Z,102505.03
2024-02-03T19:26:19.039Z,102499.63
2024-02-03T19:28:45.650Z,102497.03
2024-02-03T19:31:15.621Z,102492.59
2024-02-03T19:33:42.518Z,102498.94
2024-02-03T19:36:09.568Z,102506.16
2024-02-03T19:38:36.201Z,102499.91
2024-02-03T19:41:02.915Z,102497.28
2024-02-03T19:43:29.679Z,102499.03
2024-02-03T19:45:57.817Z,102507.03
2024-02-03T19:48:24.727Z,102507.91
2024-02-03T19:50:51.488Z,102495.28
2024-02-03T19:53:18.303Z,102512.44
2024-02-03T19:55:45.819Z,102507.91
2024-02-03T19:58:12.500Z,102507.81
2024-02-03T20:00:39.312Z,102509.56
2024-02-03T20:03:07.480Z,102505.13
2024-02-03T20:05:34.236Z,102505.03
2024-02-03T20:08:01.210Z,102515.84
2024-02-03T20:10:30.062Z,102506.78
2024-02-03T20:12:57.265Z,102495.88
2024-02-03T20:15:24.134Z,102490.50
2024-02-03T20:17:50.961Z,102487.78
2024-02-03T20:20:17.789Z,102479.59
2024-02-03T20:22:46.609Z,102481.34
2024-02-03T20:25:13.440Z,102500.16
2024-02-03T20:27:40.755Z,102490.22
2024-02-03T20:30:08.291Z,102491.00
2024-02-03T20:32:34.961Z,102494.47
2024-02-03T20:35:02.057Z,102499.00
2024-02-03T20:37:28.932Z,102493.53
2024-02-03T20:39:56.379Z,102487.25
2024-02-03T20:42:23.077Z,102488.91
2024-02-03T20:44:49.713Z,102489.88
2024-02-03T20:47:16.346Z,102491.69
2024-02-03T20:49:43.209Z,102478.09
2024-02-03T20:52:10.848Z,102475.41
2024-02-03T20:54:37.685Z,102478.00
2024-02-03T20:57:04.526Z,102477.91
2024-02-03T20:59:31.258Z,102478.78
2024-02-03T21:01:58.275Z,102469.81
2024-02-03T21:04:25.177Z,102475.13
2024-02-03T21:06:53.121Z,102473.31
2024-02-03T21:09:20.859Z,102480.44
2024-02-03T21:11:47.901Z,102480.44
2024-02-03T21:14:15.976Z,102460.56
2024-02-03T21:16:42.698Z,102456.13
2024-02-03T21:19:09.543Z,102449.78
2024-02-03T21:21:41.312Z,102458.66
2024-02-03T21:24:08.825Z,102449.59
2024-02-03T21:26:35.385Z,102442.25
2024-02-03T21:29:02.102Z,102442.25
2024-02-03T21:31:28.849Z,102449.41
2024-02-03T21:33:55.890Z,102445.75
2024-02-03T21:36:22.713Z,102442.88
2024-02-03T21:38:49.643Z,102432.94
2024-02-03T21:41:17.801Z,102436.31
2024-02-03T21:43:48.248Z,102432.66
2024-02-03T21:46:18.519Z,102428.22
2024-02-03T21:48:49.150Z,102424.53
2024-02-03T21:51:17.092Z,102420.88
2024-02-03T21:53:48.037Z,102418.19
2024-02-03T21:56:19.447Z,102416.34
2024-02-03T21:58:47.141Z,102411.81
2024-02-03T22:01:17.697Z,102416.34
2024-02-03T22:03:45.535Z,102405.63
2024-02-03T22:06:12.240Z,102401.97
2024-02-03T22:08:38.924Z,102397.34
2024-02-03T22:11:09.864Z,102394.56
2024-02-03T22:13:37.172Z,102404.41
2024-02-03T22:16:04.059Z,102392.63
2024-02-03T22:18:30.879Z,102392.63
2024-02-03T22:20:57.493Z,102409.63
2024-02-03T22:23:26.037Z,102400.63
2024-02-03T22:25:52.778Z,102401.50
2024-02-03T22:28:19.617Z,102401.41
2024-02-03T22:30:46.360Z,102395.13
2024-02-03T22:33:13.099Z,102399.53
2024-02-03T22:35:39.728Z,102388.72
2024-02-03T22:38:06.324Z,102392.28
2024-02-03T22:40:33.061Z,102382.34
2024-02-03T22:42:59.842Z,102372.41
2024-02-03T22:45:26.566Z,102371.44
2024-02-03T22:47:53.213Z,102368.66
2024-02-03T22:50:19.904Z,102365.94
2024-02-03T22:52:46.572Z,102368.56
2024-02-03T22:55:13.151Z,102381.97
2024-02-03T22:57:39.793Z,102369.31
2024-02-03T23:00:16.923Z,102356.69
2024-02-03T23:02:44.343Z,102360.25
2024-02-03T23:05:11.707Z,102363.72
2024-02-03T23:07:39.019Z,102370.19
2024-02-03T23:10:05.902Z,102361.13
2024-02-03T23:12:32.522Z,102350.41
2024-02-03T23:14:59.174Z,102346.84
2024-02-03T23:17:25.956Z,102344.22
2024-02-03T23:19:53.745Z,102345.09
2024-02-03T23:22:20.672Z,102334.38
2024-02-03T23:24:48.345Z,102341.63
2024-02-03T23:27:15.548Z,102339.88
2024-02-03T23:29:42.283Z,102340.75
2024-02-03T23:32:08.941Z,102335.44
2024-02-03T23:34:35.730Z,102348.09
2024-02-03T23:37:02.489Z,102350.88
2024-02-03T23:39:29.307Z,102345.47
2024-02-03T23:41:56.124Z,102341.00
2024-02-03T23:44:23.046Z,102342.94
2024-02-03T23:46:49.774Z,102330.31
2024-02-03T23:49:16.380Z,102335.69
2024-02-03T23:51:43.339Z,102340.25
2024-02-03T23:54:11.161Z,102339.47
2024-02-03T23:56:38.843Z,102336.84
2024-02-03T23:59:05.477Z,102349.50
